Terminal Aerodrome Forecast
Issued by NWS Charleston, WV

Current Version | Previous Version | Text Only | Print | Product List | Glossary Off
Versions: 1 2 3 4 5 6 7 8 9 10 11 12 13 14 15 16 17 18 19 20

000
FTUS41 KRLX 230542
TAFPKB
TAF
KPKB 230542Z 2306/2406 13006KT P6SM SCT250
     FM231100 13008G17KT P6SM SCT250
     FM231500 13013G24KT P6SM OVC200
     FM231800 14014G26KT P6SM -SHRA OVC140
     FM232200 15007KT P6SM OVC070=

USA.gov is the U.S. government's official web portal to all federal, state and local government web resources and services.